METAR Formatted Surface Weather Observation
Issued by NWS Columbia, SC

Home | Current Version | Previous Version | Text Only | Print | Product List | Glossary On
Versions: 1
643
SAUS42 KCAE 010603 COR
MTRCAE
METAR KCAE 010556Z COR 27012KT 10SM FEW030 18/14 A2980 RMK AO2
SLP089 60017 T01830144 10211 20183 51005



USA.gov is the U.S. government's official web portal to all federal, state and local government web resources and services.